PWSweather.com
Personal Weather Stations
Station Observations
WILS01
Leuven, WilseleBE 3012

LeuvenWilseleBE 3012

Lat: 50.89518, Lon: 4.69741

Elevation: 120

Station Type: DAVIS VP2

Latest ConditionsUpdated 8:01:53 PM GMT+01:01 Friday, Nov 28, 2014
Currently Today's Max Today's Min Today's Average
Temperature 44.2°F6.8°C 52.0°F11.1°C 44.2°F6.8°C 47.8°F8.8°C
Dew Point 41.5°F5.3°C 48.4°F9.1°C 41.5°F5.3°C 45.6°F7.6°C
Winds Calm Calm 0.9 mph E1.4 kmh E - 0.1 mph 0.2 kmh
Wind Gusts 0.4 mph0.6 kmh 1.8 mph2.9 kmh - -
Humidity 90% 96% 86% 92%
Pressure 29.78 in1008.5 mb 29.78 in1008.5 mb 29.67 in1004.7 mb -
Hour Temp Dew Point Humidity Winds Wind Gusts Pressure Precip Precip Rate Daily Precip Total
08:01 PM 44.2°F6.8°C 41.5°F5.3°C 90% Calm Calm 0.4 mph0.6 kmh 29.78 in1008.5 mb 0.00 in0.0 mm 0.00 in/hr0.0 mm/hr 0.00 in0.0 mm
07:51 PM 44.4°F6.9°C 41.7°F5.4°C 90% Calm Calm 0.7 mph1.1 kmh 29.78 in1008.5 mb 0.00 in0.0 mm 0.00 in/hr0.0 mm/hr 0.00 in0.0 mm
07:41 PM 44.6°F7.0°C 41.5°F5.3°C 89% Calm Calm 0.4 mph0.6 kmh 29.78 in1008.5 mb 0.00 in0.0 mm 0.00 in/hr0.0 mm/hr 0.00 in0.0 mm
07:31 PM 44.8°F7.1°C 41.7°F5.4°C 89% Calm Calm 0.7 mph1.1 kmh 29.78 in1008.5 mb 0.00 in0.0 mm 0.00 in/hr0.0 mm/hr 0.00 in0.0 mm
07:21 PM 45.1°F7.3°C 42.1°F5.6°C 89% Calm Calm 0.2 mph0.3 kmh 29.77 in1008.1 mb 0.00 in0.0 mm 0.00 in/hr0.0 mm/hr 0.00 in0.0 mm
07:11 PM 45.3°F7.4°C 42.3°F5.7°C 89% Calm Calm 0.2 mph0.3 kmh 29.76 in1007.8 mb 0.00 in0.0 mm 0.00 in/hr0.0 mm/hr 0.00 in0.0 mm
07:00 PM 45.7°F7.6°C 42.6°F5.9°C 89% Calm Calm -- 29.77 in1008.1 mb 0.00 in0.0 mm 0.00 in/hr0.0 mm/hr 0.00 in0.0 mm
06:50 PM 45.9°F7.7°C 42.8°F6.0°C 89% Calm Calm -- 29.77 in1008.1 mb 0.00 in0.0 mm 0.00 in/hr0.0 mm/hr 0.00 in0.0 mm
06:40 PM 46.0°F7.8°C 42.6°F5.9°C 88% Calm Calm -- 29.76 in1007.8 mb 0.00 in0.0 mm 0.00 in/hr0.0 mm/hr 0.00 in0.0 mm
06:30 PM 46.2°F7.9°C 42.8°F6.0°C 88% Calm Calm 0.4 mph0.6 kmh 29.75 in1007.5 mb 0.00 in0.0 mm 0.00 in/hr0.0 mm/hr 0.00 in0.0 mm
06:20 PM 46.6°F8.1°C 43.2°F6.2°C 88% Calm Calm 0.7 mph1.1 kmh 29.75 in1007.5 mb 0.00 in0.0 mm 0.00 in/hr0.0 mm/hr 0.00 in0.0 mm
06:09 PM 46.9°F8.3°C 43.5°F6.4°C 88% Calm Calm 0.2 mph0.3 kmh 29.75 in1007.5 mb 0.00 in0.0 mm 0.00 in/hr0.0 mm/hr 0.00 in0.0 mm
05:59 PM 47.3°F8.5°C 43.9°F6.6°C 88% Calm Calm -- 29.75 in1007.5 mb 0.00 in0.0 mm 0.00 in/hr0.0 mm/hr 0.00 in0.0 mm
05:49 PM 47.7°F8.7°C 44.1°F6.7°C 87% Calm Calm -- 29.75 in1007.5 mb 0.00 in0.0 mm 0.00 in/hr0.0 mm/hr 0.00 in0.0 mm
05:39 PM 48.0°F8.9°C 44.4°F6.9°C 87% Calm Calm -- 29.74 in1007.1 mb 0.00 in0.0 mm 0.00 in/hr0.0 mm/hr 0.00 in0.0 mm
05:29 PM 48.6°F9.2°C 44.8°F7.1°C 87% Calm Calm 0.2 mph0.3 kmh 29.74 in1007.1 mb 0.00 in0.0 mm 0.00 in/hr0.0 mm/hr 0.00 in0.0 mm
05:18 PM 48.7°F9.3°C 44.8°F7.1°C 86% Calm Calm -- 29.74 in1007.1 mb 0.00 in0.0 mm 0.00 in/hr0.0 mm/hr 0.00 in0.0 mm
05:08 PM 48.9°F9.4°C 45.0°F7.2°C 86% Calm Calm 0.2 mph0.3 kmh 29.74 in1007.1 mb 0.00 in0.0 mm 0.00 in/hr0.0 mm/hr 0.00 in0.0 mm
04:58 PM 49.3°F9.6°C 45.3°F7.4°C 86% Calm Calm 0.4 mph0.6 kmh 29.73 in1006.8 mb 0.00 in0.0 mm 0.00 in/hr0.0 mm/hr 0.00 in0.0 mm
04:47 PM 49.5°F9.7°C 45.5°F7.5°C 86% 0.2 mph ENE0.3 kmh ENE 0.9 mph1.4 kmh 29.73 in1006.8 mb 0.00 in0.0 mm 0.00 in/hr0.0 mm/hr 0.00 in0.0 mm
04:37 PM 49.8°F9.9°C 45.9°F7.7°C 86% Calm Calm 0.9 mph1.4 kmh 29.73 in1006.8 mb 0.00 in0.0 mm 0.00 in/hr0.0 mm/hr 0.00 in0.0 mm
04:27 PM 50.2°F10.1°C 46.2°F7.9°C 86% Calm Calm 0.2 mph0.3 kmh 29.73 in1006.8 mb 0.00 in0.0 mm 0.00 in/hr0.0 mm/hr 0.00 in0.0 mm
04:17 PM 50.4°F10.2°C 46.4°F8.0°C 86% 0.9 mph E1.4 kmh E 1.3 mph2.1 kmh 29.72 in1006.4 mb 0.00 in0.0 mm 0.00 in/hr0.0 mm/hr 0.00 in0.0 mm
04:07 PM 50.5°F10.3°C 46.6°F8.1°C 86% 0.9 mph NE1.4 kmh NE 0.2 mph0.3 kmh 29.72 in1006.4 mb 0.00 in0.0 mm 0.00 in/hr0.0 mm/hr 0.00 in0.0 mm
03:57 PM 50.7°F10.4°C 46.8°F8.2°C 86% 0.9 mph ENE1.4 kmh ENE 0.7 mph1.1 kmh 29.72 in1006.4 mb 0.00 in0.0 mm 0.00 in/hr0.0 mm/hr 0.00 in0.0 mm
03:46 PM 51.1°F10.6°C 47.1°F8.4°C 86% 0.9 mph NE1.4 kmh NE 0.2 mph0.3 kmh 29.71 in1006.1 mb 0.00 in0.0 mm 0.00 in/hr0.0 mm/hr 0.00 in0.0 mm
03:36 PM 51.4°F10.8°C 47.5°F8.6°C 86% Calm Calm 0.7 mph1.1 kmh 29.71 in1006.1 mb 0.00 in0.0 mm 0.00 in/hr0.0 mm/hr 0.00 in0.0 mm
03:26 PM 51.6°F10.9°C 47.5°F8.6°C 86% Calm Calm -- 29.71 in1006.1 mb 0.00 in0.0 mm 0.00 in/hr0.0 mm/hr 0.00 in0.0 mm
03:16 PM 51.6°F10.9°C 47.5°F8.6°C 86% 0.9 mph 1.4 kmh -- 29.70 in1005.8 mb 0.00 in0.0 mm 0.00 in/hr0.0 mm/hr 0.00 in0.0 mm
03:05 PM 51.8°F11.0°C 47.7°F8.7°C 86% 0.9 mph ENE1.4 kmh ENE 1.8 mph2.9 kmh 29.70 in1005.8 mb 0.00 in0.0 mm 0.00 in/hr0.0 mm/hr 0.00 in0.0 mm
02:54 PM 51.8°F11.0°C 47.7°F8.7°C 86% 0.7 mph SW1.1 kmh SW 0.2 mph0.3 kmh 29.71 in1006.1 mb 0.00 in0.0 mm 0.00 in/hr0.0 mm/hr 0.00 in0.0 mm
02:44 PM 52.0°F11.1°C 48.2°F9.0°C 87% Calm Calm 1.3 mph2.1 kmh 29.69 in1005.4 mb 0.00 in0.0 mm 0.00 in/hr0.0 mm/hr 0.00 in0.0 mm
02:34 PM 51.8°F11.0°C 48.0°F8.9°C 87% Calm Calm -- 29.69 in1005.4 mb 0.00 in0.0 mm 0.00 in/hr0.0 mm/hr 0.00 in0.0 mm
02:24 PM 51.8°F11.0°C 48.4°F9.1°C 88% Calm Calm 1.1 mph1.8 kmh 29.69 in1005.4 mb 0.00 in0.0 mm 0.00 in/hr0.0 mm/hr 0.00 in0.0 mm
02:13 PM 51.6°F10.9°C 48.2°F9.0°C 88% Calm Calm 0.9 mph1.4 kmh 29.69 in1005.4 mb 0.00 in0.0 mm 0.00 in/hr0.0 mm/hr 0.00 in0.0 mm
02:03 PM 51.4°F10.8°C 48.4°F9.1°C 89% Calm Calm 0.2 mph0.3 kmh 29.69 in1005.4 mb 0.00 in0.0 mm 0.00 in/hr0.0 mm/hr 0.00 in0.0 mm
01:53 PM 51.3°F10.7°C 48.2°F9.0°C 89% Calm Calm -- 29.70 in1005.8 mb 0.00 in0.0 mm 0.00 in/hr0.0 mm/hr 0.00 in0.0 mm
01:43 PM 51.1°F10.6°C 48.0°F8.9°C 89% Calm Calm 0.2 mph0.3 kmh 29.70 in1005.8 mb 0.00 in0.0 mm 0.00 in/hr0.0 mm/hr 0.00 in0.0 mm
01:33 PM 50.7°F10.4°C 47.7°F8.7°C 89% Calm Calm -- 29.70 in1005.8 mb 0.00 in0.0 mm 0.00 in/hr0.0 mm/hr 0.00 in0.0 mm
01:23 PM 50.7°F10.4°C 47.8°F8.8°C 89% Calm Calm -- 29.70 in1005.8 mb 0.00 in0.0 mm 0.00 in/hr0.0 mm/hr 0.00 in0.0 mm
01:12 PM 50.5°F10.3°C 47.7°F8.7°C 90% Calm Calm 0.2 mph0.3 kmh 29.70 in1005.8 mb 0.00 in0.0 mm 0.00 in/hr0.0 mm/hr 0.00 in0.0 mm
01:02 PM 50.4°F10.2°C 47.5°F8.6°C 90% Calm Calm 0.4 mph0.6 kmh 29.70 in1005.8 mb 0.00 in0.0 mm 0.00 in/hr0.0 mm/hr 0.00 in0.0 mm
12:52 PM 50.2°F10.1°C 47.3°F8.5°C 90% Calm Calm 0.2 mph0.3 kmh 29.70 in1005.8 mb 0.00 in0.0 mm 0.00 in/hr0.0 mm/hr 0.00 in0.0 mm
12:42 PM 50.2°F10.1°C 47.7°F8.7°C 91% Calm Calm 0.4 mph0.6 kmh 29.70 in1005.8 mb 0.00 in0.0 mm 0.00 in/hr0.0 mm/hr 0.00 in0.0 mm
12:31 PM 49.8°F9.9°C 47.3°F8.5°C 91% Calm Calm 1.3 mph2.1 kmh 29.70 in1005.8 mb 0.00 in0.0 mm 0.00 in/hr0.0 mm/hr 0.00 in0.0 mm
12:21 PM 49.6°F9.8°C 47.5°F8.6°C 92% Calm Calm 0.9 mph1.4 kmh 29.70 in1005.8 mb 0.00 in0.0 mm 0.00 in/hr0.0 mm/hr 0.00 in0.0 mm
12:11 PM 49.5°F9.7°C 47.3°F8.5°C 92% 0.2 mph 0.3 kmh 0.2 mph0.3 kmh 29.70 in1005.8 mb 0.00 in0.0 mm 0.00 in/hr0.0 mm/hr 0.00 in0.0 mm
12:00 PM 49.3°F9.6°C 47.3°F8.5°C 93% Calm Calm 1.3 mph2.1 kmh 29.70 in1005.8 mb 0.00 in0.0 mm 0.00 in/hr0.0 mm/hr 0.00 in0.0 mm
11:49 AM 48.9°F9.4°C 46.9°F8.3°C 93% Calm Calm 0.9 mph1.4 kmh 29.70 in1005.8 mb 0.00 in0.0 mm 0.00 in/hr0.0 mm/hr 0.00 in0.0 mm
11:39 AM 48.7°F9.3°C 47.1°F8.4°C 94% Calm Calm 0.2 mph0.3 kmh 29.70 in1005.8 mb 0.00 in0.0 mm 0.00 in/hr0.0 mm/hr 0.00 in0.0 mm
11:29 AM 48.4°F9.1°C 46.8°F8.2°C 94% Calm Calm 0.4 mph0.6 kmh 29.70 in1005.8 mb 0.00 in0.0 mm 0.00 in/hr0.0 mm/hr 0.00 in0.0 mm
11:19 AM 48.0°F8.9°C 46.4°F8.0°C 94% Calm Calm 0.2 mph0.3 kmh 29.70 in1005.8 mb 0.00 in0.0 mm 0.00 in/hr0.0 mm/hr 0.00 in0.0 mm
11:08 AM 47.7°F8.7°C 46.0°F7.8°C 94% 0.9 mph ENE1.4 kmh ENE 1.1 mph1.8 kmh 29.70 in1005.8 mb 0.00 in0.0 mm 0.00 in/hr0.0 mm/hr 0.00 in0.0 mm
10:58 AM 47.5°F8.6°C 46.0°F7.8°C 95% 0.9 mph ESE1.4 kmh ESE 1.1 mph1.8 kmh 29.70 in1005.8 mb 0.00 in0.0 mm 0.00 in/hr0.0 mm/hr 0.00 in0.0 mm
10:48 AM 47.1°F8.4°C 45.7°F7.6°C 95% 0.9 mph ENE1.4 kmh ENE 1.6 mph2.6 kmh 29.70 in1005.8 mb 0.00 in0.0 mm 0.00 in/hr0.0 mm/hr 0.00 in0.0 mm
10:38 AM 46.9°F8.3°C 45.5°F7.5°C 95% 0.9 mph ESE1.4 kmh ESE 0.7 mph1.1 kmh 29.70 in1005.8 mb 0.00 in0.0 mm 0.00 in/hr0.0 mm/hr 0.00 in0.0 mm
10:27 AM 46.9°F8.3°C 45.5°F7.5°C 95% Calm Calm 1.1 mph1.8 kmh 29.70 in1005.8 mb 0.00 in0.0 mm 0.00 in/hr0.0 mm/hr 0.00 in0.0 mm
10:17 AM 46.8°F8.2°C 45.3°F7.4°C 95% 0.9 mph E1.4 kmh E -- 29.70 in1005.8 mb 0.00 in0.0 mm 0.00 in/hr0.0 mm/hr 0.00 in0.0 mm
10:07 AM 46.6°F8.1°C 45.5°F7.5°C 96% Calm Calm 1.3 mph2.1 kmh 29.70 in1005.8 mb 0.00 in0.0 mm 0.00 in/hr0.0 mm/hr 0.00 in0.0 mm
09:56 AM 46.2°F7.9°C 45.1°F7.3°C 96% Calm Calm 1.1 mph1.8 kmh 29.70 in1005.8 mb 0.00 in0.0 mm 0.00 in/hr0.0 mm/hr 0.00 in0.0 mm
09:46 AM 46.0°F7.8°C 45.0°F7.2°C 96% Calm Calm 0.2 mph0.3 kmh 29.69 in1005.4 mb 0.00 in0.0 mm 0.00 in/hr0.0 mm/hr 0.00 in0.0 mm
09:36 AM 46.0°F7.8°C 45.0°F7.2°C 96% Calm Calm 0.2 mph0.3 kmh 29.69 in1005.4 mb 0.00 in0.0 mm 0.00 in/hr0.0 mm/hr 0.00 in0.0 mm
09:25 AM 46.0°F7.8°C 45.0°F7.2°C 96% Calm Calm 0.4 mph0.6 kmh 29.70 in1005.8 mb 0.00 in0.0 mm 0.00 in/hr0.0 mm/hr 0.00 in0.0 mm
09:15 AM 45.9°F7.7°C 44.8°F7.1°C 96% Calm Calm 0.4 mph0.6 kmh 29.69 in1005.4 mb 0.00 in0.0 mm 0.00 in/hr0.0 mm/hr 0.00 in0.0 mm
09:05 AM 45.9°F7.7°C 44.8°F7.1°C 96% Calm Calm 0.7 mph1.1 kmh 29.69 in1005.4 mb 0.00 in0.0 mm 0.00 in/hr0.0 mm/hr 0.00 in0.0 mm
08:55 AM 45.7°F7.6°C 44.6°F7.0°C 96% 0.9 mph ENE1.4 kmh ENE 1.8 mph2.9 kmh 29.69 in1005.4 mb 0.00 in0.0 mm 0.00 in/hr0.0 mm/hr 0.00 in0.0 mm
08:44 AM 45.7°F7.6°C 44.6°F7.0°C 96% Calm Calm 1.3 mph2.1 kmh 29.68 in1005.1 mb 0.00 in0.0 mm 0.00 in/hr0.0 mm/hr 0.00 in0.0 mm
08:34 AM 45.5°F7.5°C 44.4°F6.9°C 96% 0.9 mph E1.4 kmh E 0.4 mph0.6 kmh 29.68 in1005.1 mb 0.00 in0.0 mm 0.00 in/hr0.0 mm/hr 0.00 in0.0 mm
08:24 AM 45.3°F7.4°C 44.2°F6.8°C 96% Calm Calm -- 29.68 in1005.1 mb 0.00 in0.0 mm 0.00 in/hr0.0 mm/hr 0.00 in0.0 mm
08:13 AM 45.3°F7.4°C 44.2°F6.8°C 96% Calm Calm 0.2 mph0.3 kmh 29.68 in1005.1 mb 0.00 in0.0 mm 0.00 in/hr0.0 mm/hr 0.00 in0.0 mm
08:03 AM 45.3°F7.4°C 44.2°F6.8°C 96% Calm Calm 0.4 mph0.6 kmh 29.68 in1005.1 mb 0.00 in0.0 mm 0.00 in/hr0.0 mm/hr 0.00 in0.0 mm
07:53 AM 45.1°F7.3°C 44.1°F6.7°C 96% Calm Calm 0.7 mph1.1 kmh 29.68 in1005.1 mb 0.00 in0.0 mm 0.00 in/hr0.0 mm/hr 0.00 in0.0 mm
07:42 AM 45.1°F7.3°C 44.1°F6.7°C 96% Calm Calm 0.7 mph1.1 kmh 29.68 in1005.1 mb 0.00 in0.0 mm 0.00 in/hr0.0 mm/hr 0.00 in0.0 mm
07:32 AM 45.1°F7.3°C 44.1°F6.7°C 96% Calm Calm 0.7 mph1.1 kmh 29.68 in1005.1 mb 0.00 in0.0 mm 0.00 in/hr0.0 mm/hr 0.00 in0.0 mm
07:22 AM 45.1°F7.3°C 44.1°F6.7°C 96% Calm Calm 0.2 mph0.3 kmh 29.68 in1005.1 mb 0.00 in0.0 mm 0.00 in/hr0.0 mm/hr 0.00 in0.0 mm
07:12 AM 45.1°F7.3°C 44.1°F6.7°C 96% Calm Calm 0.4 mph0.6 kmh 29.68 in1005.1 mb 0.00 in0.0 mm 0.00 in/hr0.0 mm/hr 0.00 in0.0 mm
07:01 AM 45.1°F7.3°C 44.1°F6.7°C 96% Calm Calm 0.2 mph0.3 kmh 29.68 in1005.1 mb 0.00 in0.0 mm 0.00 in/hr0.0 mm/hr 0.00 in0.0 mm
06:50 AM 45.1°F7.3°C 44.1°F6.7°C 96% Calm Calm 0.2 mph0.3 kmh 29.68 in1005.1 mb 0.00 in0.0 mm 0.00 in/hr0.0 mm/hr 0.00 in0.0 mm
06:40 AM 45.1°F7.3°C 44.1°F6.7°C 96% Calm Calm 0.7 mph1.1 kmh 29.68 in1005.1 mb 0.00 in0.0 mm 0.00 in/hr0.0 mm/hr 0.00 in0.0 mm
06:30 AM 45.1°F7.3°C 44.1°F6.7°C 96% Calm Calm 0.4 mph0.6 kmh 29.68 in1005.1 mb 0.00 in0.0 mm 0.00 in/hr0.0 mm/hr 0.00 in0.0 mm
06:20 AM 45.3°F7.4°C 44.1°F6.7°C 95% Calm Calm -- 29.67 in1004.7 mb 0.00 in0.0 mm 0.00 in/hr0.0 mm/hr 0.00 in0.0 mm
06:10 AM 45.3°F7.4°C 44.2°F6.8°C 96% Calm Calm 0.4 mph0.6 kmh 29.67 in1004.7 mb 0.00 in0.0 mm 0.00 in/hr0.0 mm/hr 0.00 in0.0 mm
05:59 AM 45.5°F7.5°C 44.4°F6.9°C 96% Calm Calm -- 29.67 in1004.7 mb 0.00 in0.0 mm 0.00 in/hr0.0 mm/hr 0.00 in0.0 mm
05:49 AM 45.7°F7.6°C 44.4°F6.9°C 95% Calm Calm 0.7 mph1.1 kmh 29.67 in1004.7 mb 0.00 in0.0 mm 0.00 in/hr0.0 mm/hr 0.00 in0.0 mm
05:39 AM 45.9°F7.7°C 44.4°F6.9°C 95% Calm Calm -- 29.67 in1004.7 mb 0.00 in0.0 mm 0.00 in/hr0.0 mm/hr 0.00 in0.0 mm
05:29 AM 45.9°F7.7°C 44.4°F6.9°C 95% Calm Calm 0.2 mph0.3 kmh 29.67 in1004.7 mb 0.00 in0.0 mm 0.00 in/hr0.0 mm/hr 0.00 in0.0 mm
05:19 AM 45.7°F7.6°C 44.4°F6.9°C 95% Calm Calm -- 29.67 in1004.7 mb 0.00 in0.0 mm 0.00 in/hr0.0 mm/hr 0.00 in0.0 mm
05:08 AM 45.7°F7.6°C 44.4°F6.9°C 95% Calm Calm 0.2 mph0.3 kmh 29.67 in1004.7 mb 0.00 in0.0 mm 0.00 in/hr0.0 mm/hr 0.00 in0.0 mm
04:58 AM 45.7°F7.6°C 44.4°F6.9°C 95% Calm Calm 0.4 mph0.6 kmh 29.67 in1004.7 mb 0.00 in0.0 mm 0.00 in/hr0.0 mm/hr 0.00 in0.0 mm
04:48 AM 45.7°F7.6°C 44.4°F6.9°C 95% Calm Calm 0.9 mph1.4 kmh 29.67 in1004.7 mb 0.00 in0.0 mm 0.00 in/hr0.0 mm/hr 0.00 in0.0 mm
04:37 AM 45.7°F7.6°C 44.4°F6.9°C 95% Calm Calm -- 29.68 in1005.1 mb 0.00 in0.0 mm 0.00 in/hr0.0 mm/hr 0.00 in0.0 mm
04:27 AM 45.9°F7.7°C 44.4°F6.9°C 95% Calm Calm -- 29.68 in1005.1 mb 0.00 in0.0 mm 0.00 in/hr0.0 mm/hr 0.00 in0.0 mm
04:17 AM 46.2°F7.9°C 44.8°F7.1°C 95% Calm Calm 0.9 mph1.4 kmh 29.68 in1005.1 mb 0.00 in0.0 mm 0.00 in/hr0.0 mm/hr 0.00 in0.0 mm
04:06 AM 46.6°F8.1°C 45.0°F7.2°C 94% Calm Calm -- 29.68 in1005.1 mb 0.00 in0.0 mm 0.00 in/hr0.0 mm/hr 0.00 in0.0 mm
03:56 AM 46.8°F8.2°C 45.3°F7.4°C 95% Calm Calm 0.2 mph0.3 kmh 29.68 in1005.1 mb 0.00 in0.0 mm 0.00 in/hr0.0 mm/hr 0.00 in0.0 mm
03:46 AM 46.9°F8.3°C 45.5°F7.5°C 94% Calm Calm -- 29.68 in1005.1 mb 0.00 in0.0 mm 0.00 in/hr0.0 mm/hr 0.00 in0.0 mm
03:36 AM 47.5°F8.6°C 45.9°F7.7°C 94% Calm Calm -- 29.67 in1004.7 mb 0.00 in0.0 mm 0.00 in/hr0.0 mm/hr 0.00 in0.0 mm
03:25 AM 47.7°F8.7°C 46.2°F7.9°C 95% Calm Calm 1.1 mph1.8 kmh 29.67 in1004.7 mb 0.00 in0.0 mm 0.00 in/hr0.0 mm/hr 0.00 in0.0 mm
03:15 AM 47.8°F8.8°C 46.4°F8.0°C 95% Calm Calm 0.4 mph0.6 kmh 29.67 in1004.7 mb 0.00 in0.0 mm 0.00 in/hr0.0 mm/hr 0.00 in0.0 mm
03:05 AM 48.0°F8.9°C 46.6°F8.1°C 94% Calm Calm 0.9 mph1.4 kmh 29.67 in1004.7 mb 0.00 in0.0 mm 0.00 in/hr0.0 mm/hr 0.00 in0.0 mm
02:54 AM 48.2°F9.0°C 46.8°F8.2°C 95% Calm Calm 0.2 mph0.3 kmh 29.68 in1005.1 mb 0.00 in0.0 mm 0.00 in/hr0.0 mm/hr 0.00 in0.0 mm
02:44 AM 48.4°F9.1°C 46.9°F8.3°C 95% Calm Calm -- 29.68 in1005.1 mb 0.00 in0.0 mm 0.00 in/hr0.0 mm/hr 0.00 in0.0 mm
02:34 AM 48.6°F9.2°C 47.1°F8.4°C 95% Calm Calm 0.9 mph1.4 kmh 29.68 in1005.1 mb 0.00 in0.0 mm 0.00 in/hr0.0 mm/hr 0.00 in0.0 mm
02:23 AM 48.7°F9.3°C 47.3°F8.5°C 95% Calm Calm -- 29.68 in1005.1 mb 0.00 in0.0 mm 0.00 in/hr0.0 mm/hr 0.00 in0.0 mm
02:13 AM 48.9°F9.4°C 47.5°F8.6°C 95% Calm Calm 0.4 mph0.6 kmh 29.67 in1004.7 mb 0.00 in0.0 mm 0.00 in/hr0.0 mm/hr 0.00 in0.0 mm
02:03 AM 49.1°F9.5°C 47.7°F8.7°C 95% Calm Calm -- 29.67 in1004.7 mb 0.00 in0.0 mm 0.00 in/hr0.0 mm/hr 0.00 in0.0 mm
01:53 AM 49.1°F9.5°C 47.7°F8.7°C 95% Calm Calm 0.4 mph0.6 kmh 29.67 in1004.7 mb 0.00 in0.0 mm 0.00 in/hr0.0 mm/hr 0.00 in0.0 mm
01:42 AM 49.1°F9.5°C 47.7°F8.7°C 95% Calm Calm -- 29.68 in1005.1 mb 0.00 in0.0 mm 0.00 in/hr0.0 mm/hr 0.00 in0.0 mm
01:32 AM 49.1°F9.5°C 47.7°F8.7°C 95% Calm Calm 0.2 mph0.3 kmh 29.68 in1005.1 mb 0.00 in0.0 mm 0.00 in/hr0.0 mm/hr 0.00 in0.0 mm
01:22 AM 48.9°F9.4°C 47.5°F8.6°C 95% Calm Calm 0.2 mph0.3 kmh 29.68 in1005.1 mb 0.00 in0.0 mm 0.00 in/hr0.0 mm/hr 0.00 in0.0 mm
01:12 AM 48.9°F9.4°C 47.5°F8.6°C 95% Calm Calm 0.2 mph0.3 kmh 29.68 in1005.1 mb 0.00 in0.0 mm 0.00 in/hr0.0 mm/hr 0.00 in0.0 mm
01:01 AM 48.9°F9.4°C 47.5°F8.6°C 95% Calm Calm -- 29.68 in1005.1 mb 0.00 in0.0 mm 0.00 in/hr0.0 mm/hr 0.00 in0.0 mm
12:51 AM 48.9°F9.4°C 47.5°F8.6°C 95% Calm Calm -- 29.68 in1005.1 mb 0.00 in0.0 mm 0.00 in/hr0.0 mm/hr 0.00 in0.0 mm
12:41 AM 48.9°F9.4°C 47.5°F8.6°C 95% Calm Calm -- 29.68 in1005.1 mb 0.00 in0.0 mm 0.00 in/hr0.0 mm/hr 0.00 in0.0 mm
12:30 AM 48.9°F9.4°C 47.5°F8.6°C 95% Calm Calm 0.4 mph0.6 kmh 29.68 in1005.1 mb 0.00 in0.0 mm 0.00 in/hr0.0 mm/hr 0.00 in0.0 mm
12:20 AM 48.9°F9.4°C 47.5°F8.6°C 95% Calm Calm 0.4 mph0.6 kmh 29.68 in1005.1 mb 0.00 in0.0 mm 0.00 in/hr0.0 mm/hr 0.00 in0.0 mm
12:10 AM 49.1°F9.5°C 48.0°F8.9°C 96% Calm Calm 0.2 mph0.3 kmh 29.68 in1005.1 mb 0.00 in0.0 mm 0.00 in/hr0.0 mm/hr 0.00 in0.0 mm